Rosario, WA

11:24 PM PST on December 09, 2016 (GMT -0800)
West Slope Mount Constitution - Orcas Island | | Change Station

Elev 1033 ft 48.67 °N, 122.87 °W | Updated 4 minutes ago

Ice Pellets
Ice Pellets
32.4 °F
Feels Like 27 °F
N
6.0
Wind Variable Wind from ESE
Gusts 14.0 mph

Today
High -- | Low -- °F
--% Chance of Precip.
Yesterday
High -- | Low -- °F
Precip. -- in
Pressure 29.78 in
Visibility 10.0 miles
Clouds Overcast 1200 ft
Windchill 27 °F
Dew Point 32 °F
Humidity 98%
Rainfall 0.17 in
Snow Depth Not available.
7:52 AM 4:15 PM
Waxing Gibbous, 81% visible
METAR KORS 100715Z AUTO 18007KT 030V040 10SM OVC012 04/03 A2978 RMK AO2
Pressure 29.78 in
Visibility 10.0 miles
Clouds Overcast 1200 ft
Windchill 27 °F
Dew Point 32 °F
Humidity 98%
Rainfall 0.17 in
Snow Depth Not available.
7:52 AM 4:15 PM
Waxing Gibbous, 81% visible
METAR KORS 100715Z AUTO 18007KT 030V040 10SM OVC012 04/03 A2978 RMK AO2

10-Day Weather Forecast

Almanac

Astronomy

Dec. 09, 2016 Rise Set
Actual Time
Civil Twilight
Nautical Twilight
Astronomical Twilight
Moon
Length of Visible Light
Length of Day
Tomorrow will be .
, % of the Moon is Illuminated

Today's Extremes

State Highs State Lows

Community

WunderPhotos

Upload Photos

1,956,527 photos uploaded!

WunderBlog® & News

Nearby

Air Quality

  Air Quality AQ Index Pollutant
Not available.

Snow Depth

Station Depth Elevation

Earthquake Activity

City Distance Mag. Time & Date
Minimum magnitude displayed is 2.5.

Coastal Water Temperatures

Place Temperature

Stations

Nearby Weather Stations

Station Location Temp. Windchill Dew Point Humidity Wind Precip. Elev Updated Type
                   

Watches & Warnings

There are currently no watches in effect.